Pagina principale
METAR-TAF:

METAR-TAF

Aeroporti :

Tabarka, Tunisia

latitudine: 36-57N, longitudine: 008-45E, altezza: 20 m

Osservazione

Il bollettino è stato emesso 23 minuti fa, alle 03:00 UTC
Vento 2 kt da direzioni variabili
Temperature 7°C
Umidità 100%
Pressione 1028 hPa
Visibilità 10 km o più
Poco nuvoloso ad un'altezza di 2000 ft

METAR: DTKA 240300Z VRB02KT 9999 FEW020 07/07 Q1028 NOSIG

Ora: 04:23 (03:23 UTC)

Previsione

Il bollettino è stato emesso 3 ore e 23 minuti fa, alle 00:00 UTC
Previsione valida dal 24 alle 01 UTC al 24 alle 10 UTC
Vento 3 kt da sud/sud-ovest
Visibilità 10 km o più
Poco nuvoloso ad un'altezza di 2000 ft

TAF: DTKA 240000Z 2401/2410 20003KT 9999 FEW020

Osservazioni e previsioni meteorologiche di più di 4000 aeroporti (messaggi METAR e TAF).

Le stazioni disponibili sono rappresentate dai dischi gialli e rossi sulla carta.

Puntare il mouse per vedere il nome della stazione.

Clicca sopra per visualizzare le osservazioni e previsioni meteorologiche.

Per cambiare la mappa : fare clic sui pulsanti verdi con una croce nera per ingrandire, il pulsante verde con un trattino per diminuire, o sulla freccia verde per le mappe adiacenti.


METAR-TAF: